« 趣味的航空路誌改訂情報 2019/9/12 thu | トップページ | 令和元年航空祭inKOMATSU【B.I.編】 小松飛行場 2019/9/16 mon »

2019/09/12

定点 富山空港 2019/9/12 thu

今日は、思ったより良い天気になって、小松行けばよかったかなぁ、と思いながら定点めぐり。

RJNT 112300Z 18003KT 120V210 9999 FEW003 BKN040 BKN/// 22/20 Q1016

20190912_rjnt_00sea

北風が強くなって、波飛沫が飛んでます。

射水市では、極東杯国際ヨットレース第2レグレースのフィニッシュ日。ウラジオから日本海を渡ってきたヨットかもしれません。いろいろイベントがあるので、是非チェックしてみてください。

20190912_rjnt_01ja134a

ANA313 RJTT-RJNT JA134A A321-272N

RJNT 120000Z 23004KT 190V290 9999 FEW010 SCT025 BKN040 23/19 Q1016

20190912_rjnt_02ja139t

JA139T AW139 富山県警察

先日からの剣岳での行方不明案件の模様。

20190912_rjnt_03ja134a

20190912_rjnt_04ja134a

ANA316 RJNT-RJTT JA134A A321-272N

RJNT 120100Z 01008KT 9999 FEW020 SCT035 BKN040 24/17 Q1016

20190912_rjnt_05ja10ym

JA10YM A109SP SAK 富山県ドクターへり

南破案件

20190912_rjnt_06ja139t

「つるぎ」さん帰還

20190912_rjnt_07ja139t

病院には行かなかった模様

20190912_rjnt_08ja139t

JA139T

20190912_rjnt_09ja6502

JA6502 AS350B3 AKF

RJNT 120200Z 01008KT 340V050 9999 FEW020 SCT035 BKN050 25/16 Q1016

20190912_rjnt_10ja71an

20190912_rjnt_11ja71an

ANA315 RJTT-RJNT JA71AN B737-881

20190912_rjnt_12ja71an

テイルウインドでエンドまでころがり

20190912_rjnt_13b18617

20190912_rjnt_14b18617

CAL170 RCTP-RJNT B-18617 B737-809

20190912_rjnt_15b18617

20190912_rjnt_16ja6502

JA6502 今日は他には JA6515

20190912_rjnt_17ja9690

JA9690 AS332L AKF

RJNT 120300Z 36010KT 9999 FEW020 SCT035 BKN050 25/16 Q1016

20190912_rjnt_18ja71an

ANA1181 RJNT-RJCC JA71AN B737-881

20190912_rjnt_19b18617

ダイナさんがプッシュバックしたので・・・

20190912_rjnt_20toe

ふと、気がつくと ぎぇーTOEが燃えてる???

20190912_rjnt_21b18617

CAL171 RJNT-RCTP B-18617 B737-809

20190912_rjnt_22b18617

奇しくもダイナさんとリアル火事 那覇を思い出してしまう。

RJNT 120400Z 36009KT 330V030 9999 FEW020 SCT035 BKN/// 25/15 Q1015

20190912_rjnt_23ja6768

防災さん出発

20190912_rjnt_24ja6768

JA6768 B412EP 富山県消防防災

20190912_rjnt_25ja9690

JA9690 スパピューさんは黒々

20190912_rjnt_26ja6502

JA6502

20190912_rjnt_27ja6768

富大病院へ寄ってから立山へ と、その時・・・

20190912_rjnt_28ja10ym

空港至近にドクヘリ事案

20190912_rjnt_29ja10ym

小生も急行しましたが、救急車未着で、ミッションキャンセル

20190912_rjnt_30ja10ym

すぐ離陸に

20190912_rjnt_31ja10ym

JA10YM A109SP SAK 富山県ドクターヘリ

RJNT 120500Z 36009KT 9999 FEW020 BKN040 BKN/// 25/15 Q1015

20190912_rjnt_32fm9591

今日は、上海の臨時便の日

20190912_rjnt_33fm9592

ドクヘリ事案で到着は押さえられず。

20190912_rjnt_34ja6768

その前に防災さんが帰ってきました。

20190912_rjnt_35ja6768

JA6768

20190912_rjnt_36ja6768

本日は三兄弟コンプリート

20190912_rjnt_37b5261

CSH9592 RJNT-ZSPD B-5261 B737-76D

20190912_rjnt_38b5261

20190912_rjnt_39b5261

秋の山は、これからですね。

RJNT 120600Z 36007KT 9999 FEW020 SCT040 BKN/// 25/15 Q1015

20190912_rjnt_40ja71an

ANA1182 RJCC-RJNT JA71AN B737-881

帰路に新千歳帰りを押さえて、終了。

|

« 趣味的航空路誌改訂情報 2019/9/12 thu | トップページ | 令和元年航空祭inKOMATSU【B.I.編】 小松飛行場 2019/9/16 mon »

富山空港」カテゴリの記事

場外」カテゴリの記事

警務消防」カテゴリの記事

コメント

コメントを書く



(ウェブ上には掲載しません)


コメントは記事投稿者が公開するまで表示されません。



« 趣味的航空路誌改訂情報 2019/9/12 thu | トップページ | 令和元年航空祭inKOMATSU【B.I.編】 小松飛行場 2019/9/16 mon »